createdAt,value
2018-09-07T00:03:29.291Z,17.40
2018-09-07T00:07:37.941Z,17.10
2018-09-07T00:11:47.057Z,17.30
2018-09-07T00:15:55.839Z,17.00
2018-09-07T00:20:04.343Z,17.00
2018-09-07T00:24:12.790Z,17.00
2018-09-07T00:28:22.323Z,17.10
2018-09-07T00:32:30.782Z,17.20
2018-09-07T00:36:39.825Z,17.20
2018-09-07T00:40:48.223Z,17.20
2018-09-07T00:44:57.108Z,17.10
2018-09-07T00:49:05.925Z,17.10
2018-09-07T00:53:14.453Z,17.20
2018-09-07T00:57:22.969Z,17.10
2018-09-07T01:01:31.523Z,17.10
2018-09-07T01:05:40.362Z,17.00
2018-09-07T01:09:48.822Z,17.10
2018-09-07T01:13:57.697Z,17.10
2018-09-07T01:18:06.707Z,17.10
2018-09-07T01:22:15.201Z,17.10
2018-09-07T01:26:23.651Z,17.20
2018-09-07T01:30:32.075Z,17.00
2018-09-07T01:34:47.535Z,17.10
2018-09-07T01:38:56.037Z,17.10
2018-09-07T01:43:04.826Z,17.10
2018-09-07T01:47:13.498Z,17.00
2018-09-07T01:51:22.033Z,17.00
2018-09-07T01:55:30.624Z,17.10
2018-09-07T01:59:39.052Z,17.10
2018-09-07T02:03:47.451Z,17.00
2018-09-07T02:07:55.839Z,16.80
2018-09-07T02:12:04.252Z,16.80
2018-09-07T02:16:12.845Z,16.80
2018-09-07T02:20:21.286Z,16.80
2018-09-07T02:24:30.121Z,16.80
2018-09-07T02:28:38.607Z,16.80
2018-09-07T02:32:47.445Z,16.70
2018-09-07T02:36:55.894Z,16.70
2018-09-07T02:41:04.347Z,16.80
2018-09-07T02:45:13.257Z,16.70
2018-09-07T02:49:21.832Z,16.70
2018-09-07T02:53:30.187Z,16.70
2018-09-07T02:57:38.543Z,16.70
2018-09-07T03:01:46.972Z,16.60
2018-09-07T03:05:55.377Z,16.70
2018-09-07T03:10:03.916Z,16.60
2018-09-07T03:14:12.333Z,16.60
2018-09-07T03:18:21.069Z,16.70
2018-09-07T03:22:29.819Z,16.60
2018-09-07T03:26:38.327Z,16.50
2018-09-07T03:30:47.281Z,16.60
2018-09-07T03:34:55.753Z,16.60
2018-09-07T03:39:04.747Z,16.50
2018-09-07T03:43:13.448Z,16.50
2018-09-07T03:47:21.849Z,16.50
2018-09-07T03:51:30.230Z,16.60
2018-09-07T03:55:38.649Z,16.60
2018-09-07T03:59:47.302Z,16.70
2018-09-07T04:03:55.999Z,16.60
2018-09-07T04:08:04.536Z,16.60
2018-09-07T04:12:13.287Z,16.60
2018-09-07T04:16:21.838Z,16.60
2018-09-07T04:20:30.280Z,16.60
2018-09-07T04:24:39.079Z,16.70
2018-09-07T04:28:48.134Z,16.80
2018-09-07T04:32:56.658Z,16.70
2018-09-07T04:37:05.223Z,16.60
2018-09-07T04:41:13.712Z,16.60
2018-09-07T04:45:22.108Z,16.70
2018-09-07T04:49:30.892Z,16.60
2018-09-07T04:53:39.803Z,16.60
2018-09-07T04:57:48.253Z,16.60
2018-09-07T05:01:56.860Z,16.40
2018-09-07T05:06:05.369Z,16.50
2018-09-07T05:10:13.842Z,16.50
2018-09-07T05:14:22.269Z,16.60
2018-09-07T05:18:30.800Z,16.60
2018-09-07T05:23:25.875Z,16.50
2018-09-07T05:27:51.160Z,16.50
2018-09-07T05:31:59.548Z,16.50
2018-09-07T05:36:07.873Z,16.40
2018-09-07T05:40:16.292Z,16.40
2018-09-07T05:44:24.679Z,16.30
2018-09-07T05:48:33.008Z,16.30
2018-09-07T05:52:41.339Z,16.40
2018-09-07T05:56:50.012Z,16.40
2018-09-07T06:00:58.414Z,16.40
2018-09-07T06:05:06.747Z,16.50
2018-09-07T06:09:15.120Z,16.50
2018-09-07T06:17:31.572Z,16.50
2018-09-07T06:21:39.950Z,16.60
2018-09-07T06:25:50.173Z,16.70
2018-09-07T06:29:58.956Z,16.80
2018-09-07T06:34:07.346Z,16.90
2018-09-07T06:38:15.802Z,16.80
2018-09-07T06:42:24.113Z,16.90
2018-09-07T06:46:32.498Z,16.80
2018-09-07T06:50:40.927Z,16.80
2018-09-07T06:54:49.255Z,16.80
2018-09-07T06:58:57.573Z,16.90
2018-09-07T07:03:05.910Z,17.00
2018-09-07T07:07:14.222Z,17.00
2018-09-07T07:11:22.689Z,17.00
2018-09-07T07:15:31.019Z,16.90
2018-09-07T07:19:39.446Z,17.00
2018-09-07T07:23:47.977Z,17.10
2018-09-07T07:27:56.434Z,17.00
2018-09-07T07:32:05.307Z,17.00
2018-09-07T07:36:13.808Z,17.00
2018-09-07T07:40:22.509Z,16.70
2018-09-07T07:44:31.058Z,16.50
2018-09-07T07:48:39.397Z,16.40
2018-09-07T07:52:47.929Z,16.30
2018-09-07T07:56:56.411Z,16.30
2018-09-07T08:01:04.666Z,16.20
2018-09-07T08:05:12.974Z,16.10
2018-09-07T08:09:21.771Z,16.00
2018-09-07T08:13:30.212Z,16.00
2018-09-07T08:17:38.615Z,16.00
2018-09-07T08:21:47.051Z,15.90
2018-09-07T08:25:55.453Z,15.90
2018-09-07T08:30:03.876Z,16.00
2018-09-07T08:34:12.437Z,16.10
2018-09-07T08:38:20.861Z,16.30
2018-09-07T08:42:29.231Z,16.20
2018-09-07T08:46:37.700Z,16.00
2018-09-07T08:50:46.346Z,16.00
2018-09-07T08:54:54.799Z,16.20
2018-09-07T08:59:03.149Z,16.40
2018-09-07T09:03:11.612Z,16.40
2018-09-07T09:07:20.457Z,16.60
2018-09-07T09:11:28.811Z,16.60
2018-09-07T09:15:37.206Z,16.90
2018-09-07T09:19:45.716Z,17.10
2018-09-07T09:23:54.021Z,17.20
2018-09-07T09:28:02.702Z,17.60
2018-09-07T09:32:11.022Z,17.70
2018-09-07T09:36:19.445Z,17.60
2018-09-07T09:40:28.350Z,17.60
2018-09-07T09:44:36.737Z,17.40
2018-09-07T09:48:45.034Z,17.40
2018-09-07T09:52:53.357Z,17.70
2018-09-07T09:57:01.636Z,17.90
2018-09-07T10:01:15.425Z,18.20
2018-09-07T10:05:23.810Z,18.40
2018-09-07T10:09:32.146Z,18.50
2018-09-07T10:13:40.493Z,18.40
2018-09-07T10:17:48.923Z,18.30
2018-09-07T10:21:57.274Z,18.40
2018-09-07T10:26:05.798Z,18.50
2018-09-07T10:30:14.576Z,18.30
2018-09-07T10:34:23.128Z,18.50
2018-09-07T10:38:31.548Z,18.60
2018-09-07T10:42:40.207Z,18.50
2018-09-07T10:46:48.723Z,18.90
2018-09-07T10:50:57.212Z,18.90
2018-09-07T10:55:05.721Z,18.70
2018-09-07T10:59:14.149Z,18.70
2018-09-07T11:03:22.738Z,18.50
2018-09-07T11:07:31.278Z,18.30
2018-09-07T11:11:39.830Z,18.30
2018-09-07T11:15:48.374Z,18.10
2018-09-07T11:19:56.744Z,18.00
2018-09-07T11:24:05.049Z,18.10
2018-09-07T11:28:13.960Z,18.50
2018-09-07T11:32:22.594Z,18.70
2018-09-07T11:36:30.917Z,18.90
2018-09-07T11:40:39.352Z,19.20
2018-09-07T11:44:47.703Z,19.30
2018-09-07T11:48:56.030Z,19.30
2018-09-07T11:53:04.338Z,19.40
2018-09-07T11:57:12.669Z,19.20
2018-09-07T12:01:21.351Z,18.90
2018-09-07T12:05:30.160Z,18.60
2018-09-07T12:09:38.606Z,18.50
2018-09-07T12:13:47.225Z,18.60
2018-09-07T12:17:56.147Z,18.80
2018-09-07T12:22:04.473Z,19.00
2018-09-07T12:26:12.833Z,19.20
2018-09-07T12:30:21.186Z,19.50
2018-09-07T12:34:29.677Z,19.70
2018-09-07T12:38:38.050Z,19.90
2018-09-07T12:42:47.338Z,19.80
2018-09-07T12:46:55.844Z,20.00
2018-09-07T12:51:04.692Z,20.10
2018-09-07T12:55:13.308Z,20.30
2018-09-07T12:59:21.883Z,20.60
2018-09-07T13:03:30.256Z,20.80
2018-09-07T13:07:38.719Z,20.00
2018-09-07T13:11:47.234Z,19.30
2018-09-07T13:15:55.622Z,19.60
2018-09-07T13:20:04.338Z,19.80
2018-09-07T13:24:13.354Z,19.60
2018-09-07T13:28:22.014Z,19.70
2018-09-07T13:32:30.329Z,19.90
2018-09-07T13:36:38.615Z,19.70
2018-09-07T13:40:46.921Z,19.70
2018-09-07T13:44:55.221Z,19.70
2018-09-07T13:49:03.561Z,19.90
2018-09-07T13:53:11.907Z,20.40
2018-09-07T13:57:20.376Z,20.60
2018-09-07T14:01:28.742Z,20.60
2018-09-07T14:05:36.996Z,20.40
2018-09-07T14:09:45.338Z,20.20
2018-09-07T14:13:53.662Z,20.30
2018-09-07T14:18:01.968Z,20.40
2018-09-07T14:22:10.255Z,20.70
2018-09-07T14:26:23.569Z,20.40
2018-09-07T14:30:31.956Z,19.80
2018-09-07T14:34:40.211Z,19.60
2018-09-07T14:38:48.594Z,19.70
2018-09-07T14:42:56.891Z,19.90
2018-09-07T14:47:05.215Z,19.80
2018-09-07T14:51:13.529Z,20.00
2018-09-07T14:55:21.835Z,19.90
2018-09-07T14:59:30.161Z,19.80
2018-09-07T15:03:38.486Z,19.90
2018-09-07T15:07:46.842Z,19.90
2018-09-07T15:11:55.129Z,20.00
2018-09-07T15:16:03.722Z,19.70
2018-09-07T15:20:12.019Z,19.70
2018-09-07T15:24:20.444Z,19.90
2018-09-07T15:28:28.743Z,19.30
2018-09-07T15:32:37.067Z,19.10
2018-09-07T15:36:45.377Z,19.30
2018-09-07T15:40:54.082Z,19.40
2018-09-07T15:45:02.358Z,19.40
2018-09-07T15:49:10.664Z,19.00
2018-09-07T15:53:18.983Z,18.90
2018-09-07T15:57:27.292Z,18.90
2018-09-07T16:01:35.624Z,19.10
2018-09-07T16:05:43.938Z,19.10
2018-09-07T16:09:52.599Z,19.20
2018-09-07T16:14:01.171Z,19.00
2018-09-07T16:18:09.577Z,19.10
2018-09-07T16:22:17.939Z,19.10
2018-09-07T16:26:26.231Z,18.80
2018-09-07T16:30:34.596Z,18.70
2018-09-07T16:34:42.952Z,18.50
2018-09-07T16:38:51.214Z,18.50
2018-09-07T16:42:59.566Z,18.50
2018-09-07T16:47:07.913Z,18.50
2018-09-07T16:51:16.207Z,18.40
2018-09-07T16:55:24.531Z,18.50
2018-09-07T16:59:32.820Z,18.40
2018-09-07T17:03:41.085Z,18.20
2018-09-07T17:07:49.460Z,18.20
2018-09-07T17:11:57.785Z,18.10
2018-09-07T17:16:06.077Z,18.00
2018-09-07T17:20:14.390Z,17.90
2018-09-07T17:24:22.804Z,17.80
2018-09-07T17:28:31.081Z,17.80
2018-09-07T17:32:39.385Z,17.60
2018-09-07T17:36:47.815Z,17.50
2018-09-07T17:40:56.125Z,17.50
2018-09-07T17:45:04.534Z,17.20
2018-09-07T17:49:12.865Z,17.20
2018-09-07T17:53:21.172Z,17.20
2018-09-07T17:57:29.453Z,17.10
2018-09-07T18:01:37.832Z,16.90
2018-09-07T18:05:46.181Z,16.90
2018-09-07T18:09:54.570Z,16.80
2018-09-07T18:14:02.869Z,16.90
2018-09-07T18:18:12.218Z,16.80
2018-09-07T18:22:20.520Z,16.80
2018-09-07T18:26:28.846Z,16.70
2018-09-07T18:30:37.173Z,16.50
2018-09-07T18:34:45.546Z,16.40
2018-09-07T18:38:53.834Z,16.40
2018-09-07T18:43:02.205Z,16.50
2018-09-07T18:47:10.563Z,16.40
2018-09-07T18:51:18.910Z,16.40
2018-09-07T18:55:27.243Z,16.40
2018-09-07T18:59:36.409Z,16.30
2018-09-07T19:03:44.712Z,16.30
2018-09-07T19:07:53.033Z,16.20
2018-09-07T19:12:01.394Z,16.10
2018-09-07T19:16:09.763Z,16.00
2018-09-07T19:20:18.026Z,16.00
2018-09-07T19:24:26.358Z,15.90
2018-09-07T19:28:34.637Z,15.80
2018-09-07T19:32:42.952Z,15.70
2018-09-07T19:36:51.346Z,15.70
2018-09-07T19:40:59.701Z,15.50
2018-09-07T19:45:08.068Z,15.50
2018-09-07T19:49:16.425Z,15.40
2018-09-07T19:53:24.723Z,15.30
2018-09-07T19:57:33.010Z,15.30
2018-09-07T20:01:41.314Z,15.30
2018-09-07T20:05:50.109Z,15.30
2018-09-07T20:09:58.472Z,15.20
2018-09-07T20:14:06.912Z,15.10
2018-09-07T20:18:15.249Z,15.00
2018-09-07T20:22:23.617Z,14.90
2018-09-07T20:26:31.937Z,14.90
2018-09-07T20:30:40.271Z,14.90
2018-09-07T20:34:48.587Z,14.80
2018-09-07T20:38:56.893Z,14.70
2018-09-07T20:43:05.235Z,14.60
2018-09-07T20:47:13.534Z,14.50
2018-09-07T20:51:21.812Z,14.50
2018-09-07T20:55:30.111Z,14.50
2018-09-07T20:59:38.417Z,14.40
2018-09-07T21:03:48.356Z,14.40
2018-09-07T21:07:56.716Z,14.40
2018-09-07T21:12:05.044Z,14.50
2018-09-07T21:16:13.434Z,14.20
2018-09-07T21:20:21.742Z,14.20
2018-09-07T21:24:30.159Z,14.20
2018-09-07T21:28:38.568Z,14.20
2018-09-07T21:32:46.901Z,14.10
2018-09-07T21:36:55.231Z,14.00
2018-09-07T21:41:03.644Z,14.00
2018-09-07T21:45:12.183Z,14.00
2018-09-07T21:49:20.512Z,13.80
2018-09-07T21:53:28.940Z,13.90
2018-09-07T21:57:37.279Z,13.90
2018-09-07T22:01:45.646Z,13.80
2018-09-07T22:05:54.032Z,13.90
2018-09-07T22:10:02.376Z,13.70
2018-09-07T22:14:11.073Z,13.60
2018-09-07T22:18:19.401Z,13.50
2018-09-07T22:22:27.829Z,13.60
2018-09-07T22:26:36.184Z,13.50
2018-09-07T22:30:44.524Z,13.60
2018-09-07T22:34:52.847Z,13.60
2018-09-07T22:39:01.158Z,13.50
2018-09-07T22:43:09.502Z,13.60
2018-09-07T22:47:17.900Z,13.50
2018-09-07T22:51:26.276Z,13.60
2018-09-07T22:55:34.975Z,13.50
2018-09-07T22:59:43.343Z,13.60
2018-09-07T23:03:51.696Z,13.70
2018-09-07T23:08:00.026Z,13.60
2018-09-07T23:12:08.364Z,13.50
2018-09-07T23:16:16.811Z,13.50
2018-09-07T23:20:25.125Z,13.60
2018-09-07T23:24:33.441Z,13.60
2018-09-07T23:28:41.815Z,13.70
2018-09-07T23:32:50.191Z,13.60
2018-09-07T23:36:58.599Z,13.60
2018-09-07T23:41:07.022Z,13.60
2018-09-07T23:45:15.357Z,13.60
2018-09-07T23:49:23.676Z,13.60
2018-09-07T23:53:32.068Z,13.50
2018-09-07T23:57:40.368Z,13.50
